Time;durP1;ratioP1;P1;durP2;ratioP2;P2;SDS_P1;SDS_P2;PMS_P1;PMS_P2;Temp;Humidity;BMP_temperature;BMP_pressure;BME280_temperature;BME280_humidity;BME280_pressure;Samples;Min_cycle;Max_cycle;Signal;HPM_P1;HPM_P2
2020/12/08 00:00:22;;;;;;;19.42;15.00;;;6.40;87.80;;;;;;2056696;28;20104;-66
2020/12/08 00:01:23;;;;;;;19.25;14.75;;;6.40;87.70;;;;;;2056488;28;20078;-66
2020/12/08 00:02:23;;;;;;;20.73;15.07;;;6.40;87.50;;;;;;2055956;28;20489;-66
2020/12/08 00:03:24;;;;;;;22.05;15.68;;;6.40;87.70;;;;;;2055987;28;20522;-66
2020/12/08 00:04:25;;;;;;;20.20;14.65;;;6.40;87.70;;;;;;2063950;28;20057;-66
2020/12/08 00:05:26;;;;;;;19.25;14.70;;;6.40;87.50;;;;;;2063276;28;20359;-66
2020/12/08 00:06:28;;;;;;;18.88;14.35;;;6.40;87.50;;;;;;2056621;28;20043;-66
2020/12/08 00:07:28;;;;;;;19.98;14.32;;;6.40;87.40;;;;;;2056484;28;20030;-66
2020/12/08 00:08:29;;;;;;;17.15;13.25;;;6.40;87.60;;;;;;2064138;28;20034;-66
2020/12/08 00:09:31;;;;;;;19.40;14.15;;;6.40;87.60;;;;;;2063292;28;20117;-66
2020/12/08 00:10:31;;;;;;;19.77;13.52;;;6.40;87.70;;;;;;2064135;28;20113;-66
2020/12/08 00:11:32;;;;;;;18.83;14.05;;;6.40;87.90;;;;;;2056462;28;20546;-67
2020/12/08 00:12:33;;;;;;;17.35;13.23;;;6.40;87.90;;;;;;2056510;28;20093;-66
2020/12/08 00:13:34;;;;;;;18.10;13.80;;;6.40;87.90;;;;;;2056458;28;20438;-66
2020/12/08 00:14:34;;;;;;;19.58;13.80;;;6.40;87.90;;;;;;2056521;28;20045;-66
2020/12/08 00:15:35;;;;;;;19.35;13.60;;;6.40;87.80;;;;;;2055999;28;20035;-67
2020/12/08 00:16:39;;;;;;;18.67;13.70;;;6.40;87.80;;;;;;2056554;28;20026;-66
2020/12/08 00:17:39;;;;;;;19.13;13.88;;;6.40;87.90;;;;;;2056065;28;20019;-66
2020/12/08 00:18:40;;;;;;;19.00;13.77;;;6.40;87.90;;;;;;2056388;28;20447;-66
2020/12/08 00:19:41;;;;;;;17.50;13.40;;;6.40;87.90;;;;;;2056273;28;20714;-67
2020/12/08 00:20:42;;;;;;;18.58;14.02;;;6.40;87.90;;;;;;2056428;28;20030;-66
2020/12/08 00:21:44;;;;;;;19.80;14.18;;;6.40;87.90;;;;;;2055640;28;20051;-66
2020/12/08 00:22:45;;;;;;;18.35;13.95;;;6.40;87.90;;;;;;2056445;28;20027;-66
2020/12/08 00:23:45;;;;;;;19.65;14.77;;;6.40;87.90;;;;;;2056276;28;20069;-66
2020/12/08 00:24:46;;;;;;;18.50;14.30;;;6.40;87.90;;;;;;2056468;28;20023;-66
2020/12/08 00:25:47;;;;;;;20.75;14.68;;;6.40;88.00;;;;;;2055513;28;20117;-66
2020/12/08 00:26:48;;;;;;;19.85;14.88;;;6.40;87.80;;;;;;2056519;28;20478;-66
2020/12/08 00:27:49;;;;;;;22.50;15.75;;;6.40;87.70;;;;;;2056431;28;20026;-66
2020/12/08 00:28:50;;;;;;;22.33;15.80;;;6.40;87.70;;;;;;2056043;28;20058;-66
2020/12/08 00:29:51;;;;;;;21.50;15.43;;;6.50;87.70;;;;;;2055608;28;20031;-66
2020/12/08 00:30:52;;;;;;;20.02;15.18;;;6.50;87.60;;;;;;2056350;28;20038;-66
2020/12/08 00:31:52;;;;;;;22.08;15.32;;;6.50;87.60;;;;;;2056181;28;20031;-66
2020/12/08 00:32:53;;;;;;;21.17;15.65;;;6.50;87.70;;;;;;2056385;28;20125;-66
2020/12/08 00:33:55;;;;;;;21.10;15.50;;;6.50;87.80;;;;;;2056227;28;20105;-66
2020/12/08 00:34:56;;;;;;;22.33;16.13;;;6.50;87.70;;;;;;2055884;28;20118;-67
2020/12/08 00:35:58;;;;;;;25.60;15.90;;;6.50;87.60;;;;;;2056297;28;20026;-66
2020/12/08 00:36:59;;;;;;;21.23;15.55;;;6.50;87.70;;;;;;2056345;28;20035;-66
2020/12/08 00:38:00;;;;;;;22.88;15.80;;;6.50;88.00;;;;;;2055871;28;20073;-66
2020/12/08 00:39:01;;;;;;;20.23;14.75;;;6.50;88.30;;;;;;2055817;28;20023;-67
2020/12/08 00:40:04;;;;;;;20.58;14.93;;;6.50;88.20;;;;;;2063566;28;20065;-66
2020/12/08 00:41:04;;;;;;;19.58;14.43;;;6.50;88.10;;;;;;2063370;28;20470;-66
2020/12/08 00:42:06;;;;;;;19.92;14.63;;;6.50;88.00;;;;;;2056175;28;20045;-66
2020/12/08 00:43:07;;;;;;;19.08;14.27;;;6.50;88.00;;;;;;2056262;28;20101;-66
2020/12/08 00:44:08;;;;;;;19.98;14.23;;;6.50;88.30;;;;;;2056230;28;20114;-66
2020/12/08 00:45:10;;;;;;;17.95;14.00;;;6.50;88.50;;;;;;2055103;28;20387;-66
2020/12/08 00:46:13;;;;;;;17.88;13.60;;;6.50;88.60;;;;;;2055083;28;20409;-66
2020/12/08 00:47:14;;;;;;;19.42;14.32;;;6.50;88.70;;;;;;2055527;28;20395;-66
2020/12/08 00:48:15;;;;;;;19.00;14.65;;;6.50;88.70;;;;;;2056210;28;20058;-66
2020/12/08 00:49:17;;;;;;;18.92;14.50;;;6.50;88.50;;;;;;2055179;28;20026;-66
2020/12/08 00:50:18;;;;;;;20.27;15.25;;;6.40;88.40;;;;;;2055519;28;20146;-66
2020/12/08 00:51:19;;;;;;;18.40;14.10;;;6.40;88.40;;;;;;2055363;28;20105;-67
2020/12/08 00:52:21;;;;;;;19.60;14.65;;;6.40;88.60;;;;;;2063241;28;20560;-66
2020/12/08 00:53:22;;;;;;;20.27;14.50;;;6.40;88.30;;;;;;2063540;28;20034;-66
2020/12/08 00:54:23;;;;;;;20.27;15.07;;;6.40;88.30;;;;;;2063332;28;20034;-66
2020/12/08 00:55:24;;;;;;;18.92;13.73;;;6.40;88.10;;;;;;2062853;28;20026;-66
2020/12/08 00:56:31;;;;;;;19.75;14.20;;;6.40;88.10;;;;;;2063518;28;20081;-66
2020/12/08 00:57:32;;;;;;;17.85;13.73;;;6.40;88.20;;;;;;2063778;28;20030;-66
2020/12/08 00:58:33;;;;;;;19.63;14.18;;;6.40;88.20;;;;;;2063148;28;20057;-66
2020/12/08 00:59:34;;;;;;;19.05;14.45;;;6.40;88.10;;;;;;2063265;28;20076;-66
2020/12/08 01:00:34;;;;;;;19.58;14.55;;;6.40;88.10;;;;;;2056209;28;20627;-66
2020/12/08 01:01:36;;;;;;;18.83;14.00;;;6.40;88.40;;;;;;2063430;28;20453;-66
2020/12/08 01:02:38;;;;;;;18.98;14.02;;;6.40;88.40;;;;;;2063533;28;20034;-66
2020/12/08 01:03:40;;;;;;;18.63;13.85;;;6.40;88.50;;;;;;2063476;28;20493;-66
2020/12/08 01:04:43;;;;;;;18.52;13.73;;;6.40;88.50;;;;;;2063373;28;20045;-66
2020/12/08 01:05:44;;;;;;;17.58;13.60;;;6.40;88.40;;;;;;2046861;28;20126;-66
2020/12/08 01:06:45;;;;;;;19.58;14.25;;;6.40;88.40;;;;;;2047223;28;20031;-66
2020/12/08 01:07:46;;;;;;;20.02;14.88;;;6.40;88.40;;;;;;2063479;28;20057;-67
2020/12/08 01:08:56;;;;;;;20.92;15.38;;;6.40;88.30;;;;;;2055383;28;20042;-66
2020/12/08 01:09:57;;;;;;;20.88;15.35;;;6.40;88.40;;;;;;2055068;28;20415;-66
2020/12/08 01:10:58;;;;;;;20.25;14.95;;;6.40;88.50;;;;;;2063355;28;20580;-66
2020/12/08 01:12:04;;;;;;;18.92;14.45;;;6.30;88.50;;;;;;2063002;28;20034;-66
2020/12/08 01:13:07;;;;;;;20.40;15.27;;;6.30;88.50;;;;;;2055358;28;20514;-66
2020/12/08 01:14:12;;;;;;;18.10;13.77;;;6.30;88.60;;;;;;2055265;28;20061;-66
2020/12/08 01:15:13;;;;;;;20.80;14.93;;;6.30;88.70;;;;;;2062227;28;20022;-67
2020/12/08 01:16:14;;;;;;;19.83;14.75;;;6.30;89.00;;;;;;2063247;28;20075;-66
2020/12/08 01:17:15;;;;;;;19.08;13.90;;;6.30;89.00;;;;;;2063442;28;20027;-66
2020/12/08 01:18:16;;;;;;;19.33;14.20;;;6.30;89.00;;;;;;2055330;28;20538;-66
2020/12/08 01:19:16;;;;;;;18.67;14.10;;;6.30;89.10;;;;;;2047073;28;20034;-66
2020/12/08 01:20:17;;;;;;;19.77;14.32;;;6.30;89.30;;;;;;2055394;28;20026;-66
2020/12/08 01:21:21;;;;;;;18.40;14.02;;;6.20;89.30;;;;;;2063081;28;20081;-66
2020/12/08 01:22:23;;;;;;;19.42;14.45;;;6.20;89.40;;;;;;2063183;28;20035;-66
2020/12/08 01:23:24;;;;;;;19.08;13.90;;;6.20;89.30;;;;;;2062764;28;20038;-67
2020/12/08 01:24:25;;;;;;;19.70;14.20;;;6.20;89.50;;;;;;2055198;28;20422;-66
2020/12/08 01:25:27;;;;;;;21.45;15.25;;;6.20;89.60;;;;;;2054815;28;20034;-66
2020/12/08 01:26:28;;;;;;;23.05;16.48;;;6.20;89.80;;;;;;2063089;28;20042;-66
2020/12/08 01:27:36;;;;;;;23.48;15.45;;;6.10;90.00;;;;;;2063300;28;20097;-66
2020/12/08 01:28:39;;;;;;;22.55;15.45;;;6.10;90.10;;;;;;2062704;28;20106;-66
2020/12/08 01:29:40;;;;;;;20.48;15.02;;;6.10;90.20;;;;;;2055562;28;20035;-66
2020/12/08 01:30:41;;;;;;;21.90;15.77;;;6.00;90.20;;;;;;2063161;28;20387;-66
2020/12/08 01:31:42;;;;;;;21.65;15.20;;;6.00;90.20;;;;;;2063121;28;20666;-65
2020/12/08 01:32:48;;;;;;;23.40;16.13;;;6.00;90.30;;;;;;2063299;28;20034;-65
2020/12/08 01:33:51;;;;;;;21.80;15.25;;;5.90;90.30;;;;;;2054883;28;20081;-65
2020/12/08 01:34:52;;;;;;;22.85;16.15;;;5.90;90.30;;;;;;2054540;28;20129;-67
2020/12/08 01:35:53;;;;;;;23.08;16.08;;;5.90;90.60;;;;;;2055206;28;20038;-66
2020/12/08 01:36:54;;;;;;;22.70;16.10;;;5.90;90.20;;;;;;2055407;28;20015;-66
2020/12/08 01:37:57;;;;;;;22.27;16.27;;;5.80;90.20;;;;;;2063137;28;20479;-66
2020/12/08 01:38:58;;;;;;;23.80;16.33;;;5.80;90.20;;;;;;2063019;28;20125;-66
2020/12/08 01:39:58;;;;;;;21.90;15.48;;;5.80;90.20;;;;;;2062931;28;20466;-66
2020/12/08 01:41:00;;;;;;;22.15;15.63;;;5.70;90.20;;;;;;2054766;28;20027;-65
2020/12/08 01:42:01;;;;;;;20.88;15.25;;;5.70;90.20;;;;;;2055086;28;20494;-66
2020/12/08 01:43:06;;;;;;;20.55;15.05;;;5.70;90.30;;;;;;2062916;28;20033;-65
2020/12/08 01:44:10;;;;;;;19.92;15.15;;;5.70;90.40;;;;;;2063238;28;20030;-66
2020/12/08 01:45:10;;;;;;;20.33;14.63;;;5.70;90.50;;;;;;2062864;28;20035;-66
2020/12/08 01:46:15;;;;;;;21.63;15.15;;;5.70;90.80;;;;;;2055254;28;20042;-65
2020/12/08 01:47:17;;;;;;;21.10;15.60;;;5.70;90.50;;;;;;2056782;28;20023;-66
2020/12/08 01:48:18;;;;;;;20.08;14.68;;;5.70;90.40;;;;;;2063612;28;20019;-66
2020/12/08 01:49:20;;;;;;;19.67;14.50;;;5.70;90.40;;;;;;2062776;28;20026;-65
2020/12/08 01:50:21;;;;;;;19.88;14.60;;;5.70;90.40;;;;;;2063180;28;20037;-65
2020/12/08 01:51:23;;;;;;;20.35;15.00;;;5.60;90.40;;;;;;2063127;28;20316;-66
2020/12/08 01:52:26;;;;;;;20.00;14.75;;;5.70;90.50;;;;;;2054772;28;20062;-65
2020/12/08 01:53:29;;;;;;;21.13;15.25;;;5.60;90.50;;;;;;2048490;28;20054;-66
2020/12/08 01:54:31;;;;;;;21.75;15.23;;;5.60;90.60;;;;;;2063238;28;20029;-66
2020/12/08 01:55:33;;;;;;;24.42;15.95;;;5.60;90.70;;;;;;2062728;28;20516;-65
2020/12/08 01:56:34;;;;;;;21.83;15.50;;;5.70;90.70;;;;;;2063078;28;20023;-66
2020/12/08 01:57:41;;;;;;;22.42;16.20;;;5.70;90.80;;;;;;2062751;28;20018;-66
2020/12/08 01:58:45;;;;;;;22.45;16.40;;;5.70;90.70;;;;;;2062813;28;20080;-65
2020/12/08 01:59:47;;;;;;;23.08;16.10;;;5.70;90.70;;;;;;2054710;28;20042;-66
2020/12/08 02:00:56;;;;;;;21.95;15.63;;;5.70;90.70;;;;;;2048298;28;20027;-66
2020/12/08 02:01:57;;;;;;;20.85;15.20;;;5.70;90.60;;;;;;2054651;28;20415;-65
2020/12/08 02:02:58;;;;;;;22.02;15.73;;;5.80;90.60;;;;;;2062964;28;20042;-65
2020/12/08 02:04:08;;;;;;;22.40;15.32;;;5.80;90.60;;;;;;2055376;28;20042;-66
2020/12/08 02:05:11;;;;;;;22.38;15.70;;;5.80;90.70;;;;;;2054623;28;20027;-65
2020/12/08 02:06:12;;;;;;;21.90;15.57;;;5.80;90.80;;;;;;2055268;28;20023;-65
2020/12/08 02:07:13;;;;;;;21.58;15.35;;;5.80;90.80;;;;;;2063136;28;20032;-66
2020/12/08 02:08:14;;;;;;;22.83;15.60;;;5.80;90.80;;;;;;2054913;28;20574;-65
2020/12/08 02:09:16;;;;;;;21.73;15.40;;;5.80;90.80;;;;;;2054563;28;20035;-66
2020/12/08 02:10:18;;;;;;;21.13;15.43;;;5.80;90.80;;;;;;2062802;28;20105;-66
2020/12/08 02:11:20;;;;;;;21.92;15.43;;;5.80;90.80;;;;;;2063033;28;20026;-66
2020/12/08 02:12:22;;;;;;;22.77;15.32;;;5.80;90.80;;;;;;2062880;28;20112;-66
2020/12/08 02:13:24;;;;;;;22.25;15.63;;;5.80;90.90;;;;;;2063147;28;20034;-66
2020/12/08 02:14:27;;;;;;;19.77;15.18;;;5.90;90.80;;;;;;2054829;28;20170;-66
2020/12/08 02:15:32;;;;;;;21.45;14.93;;;5.90;90.80;;;;;;2054631;28;20027;-66
2020/12/08 02:16:33;;;;;;;19.90;14.73;;;5.90;90.80;;;;;;2062986;28;20027;-66
2020/12/08 02:17:35;;;;;;;22.08;15.13;;;5.90;90.70;;;;;;2062787;28;20219;-66
2020/12/08 02:18:36;;;;;;;21.33;15.32;;;5.90;90.70;;;;;;2062793;28;20111;-66
2020/12/08 02:19:37;;;;;;;22.30;15.57;;;5.90;90.70;;;;;;2062834;28;20059;-66
2020/12/08 02:20:42;;;;;;;25.17;16.65;;;5.90;90.70;;;;;;2063083;28;20023;-66
2020/12/08 02:21:44;;;;;;;30.58;18.63;;;5.90;90.70;;;;;;2063109;28;20113;-66
2020/12/08 02:23:01;;;;;;;37.25;20.42;;;5.90;90.70;;;;;;2063108;28;20030;-66
2020/12/08 02:24:04;;;;;;;42.67;22.75;;;5.90;90.60;;;;;;2063117;28;20038;-66
2020/12/08 02:25:07;;;;;;;41.35;23.15;;;6.00;90.70;;;;;;2062399;28;20556;-66
2020/12/08 02:26:08;;;;;;;40.13;22.83;;;6.00;90.70;;;;;;2062625;28;20026;-66
2020/12/08 02:27:09;;;;;;;38.80;22.10;;;6.00;90.70;;;;;;2054949;28;20023;-66
2020/12/08 02:28:11;;;;;;;30.52;19.42;;;6.00;90.70;;;;;;2055050;28;20038;-66
2020/12/08 02:29:12;;;;;;;29.27;18.73;;;6.00;90.80;;;;;;2062568;28;20026;-66
2020/12/08 02:30:16;;;;;;;25.23;17.02;;;6.00;90.90;;;;;;2062961;28;20034;-66
2020/12/08 02:31:17;;;;;;;24.85;16.50;;;6.00;90.90;;;;;;2062866;28;20033;-66
2020/12/08 02:32:18;;;;;;;24.23;16.48;;;6.00;91.00;;;;;;2054832;28;20030;-66
2020/12/08 02:33:27;;;;;;;23.08;15.82;;;6.00;91.10;;;;;;2055000;28;20097;-66
2020/12/08 02:34:28;;;;;;;23.17;15.85;;;6.00;91.20;;;;;;2054517;28;20031;-66
2020/12/08 02:35:30;;;;;;;20.63;14.70;;;5.90;91.40;;;;;;2054511;28;20030;-66
2020/12/08 02:36:30;;;;;;;20.92;15.00;;;5.90;91.50;;;;;;2062943;28;20475;-66
2020/12/08 02:37:32;;;;;;;21.17;15.10;;;5.90;91.60;;;;;;2062887;28;20026;-66
2020/12/08 02:38:33;;;;;;;19.60;14.18;;;5.90;91.70;;;;;;2062961;28;20101;-66
2020/12/08 02:39:34;;;;;;;20.85;15.18;;;5.80;91.70;;;;;;2055372;28;20098;-66
2020/12/08 02:40:35;;;;;;;18.85;14.27;;;5.80;91.70;;;;;;2055624;28;20657;-66
2020/12/08 02:41:36;;;;;;;20.40;14.70;;;5.80;91.80;;;;;;2055637;28;20061;-66
2020/12/08 02:42:39;;;;;;;19.30;14.13;;;5.80;91.90;;;;;;2055050;28;20490;-66
2020/12/08 02:43:40;;;;;;;18.55;13.80;;;5.70;91.90;;;;;;2055573;28;20110;-66
2020/12/08 02:44:41;;;;;;;18.92;13.60;;;5.70;92.10;;;;;;2054921;28;20051;-66
2020/12/08 02:45:43;;;;;;;20.17;14.40;;;5.70;92.10;;;;;;2054365;28;20103;-66
2020/12/08 02:46:48;;;;;;;24.85;17.30;;;5.70;92.20;;;;;;2055589;28;20095;-66
2020/12/08 02:47:49;;;;;;;38.92;25.23;;;5.70;92.40;;;;;;2055086;28;20019;-67
2020/12/08 02:48:51;;;;;;;32.10;21.92;;;5.70;92.90;;;;;;2054932;28;20035;-67
2020/12/08 02:49:55;;;;;;;31.65;21.70;;;5.70;92.60;;;;;;2062641;28;20161;-67
2020/12/08 02:50:56;;;;;;;29.17;20.33;;;5.70;92.60;;;;;;2054686;28;20038;-67
2020/12/08 02:51:57;;;;;;;28.98;20.48;;;5.70;92.60;;;;;;2047368;28;20043;-67
2020/12/08 02:53:00;;;;;;;29.55;20.17;;;5.70;92.60;;;;;;2064571;28;20038;-66
2020/12/08 02:54:00;;;;;;;31.88;21.92;;;5.70;92.50;;;;;;2064461;28;20387;-67
2020/12/08 02:55:02;;;;;;;37.50;25.85;;;5.70;92.70;;;;;;2063780;28;20034;-67
2020/12/08 02:56:08;;;;;;;37.28;24.65;;;5.70;92.90;;;;;;2064271;28;20026;-67
2020/12/08 02:57:09;;;;;;;37.15;25.33;;;5.80;93.00;;;;;;2063777;28;20101;-67
2020/12/08 02:58:13;;;;;;;34.45;23.60;;;5.70;93.10;;;;;;2064387;28;20038;-67
2020/12/08 02:59:15;;;;;;;35.55;25.08;;;5.70;93.10;;;;;;2063575;28;20107;-67
2020/12/08 03:00:16;;;;;;;38.85;26.02;;;5.80;93.20;;;;;;2056256;28;20104;-67
2020/12/08 03:01:20;;;;;;;36.13;25.25;;;5.80;93.30;;;;;;2056156;28;20607;-67
2020/12/08 03:02:23;;;;;;;40.47;27.55;;;5.80;93.30;;;;;;2064283;28;20049;-67
2020/12/08 03:03:25;;;;;;;42.05;27.35;;;5.80;93.40;;;;;;2055751;28;20162;-67
2020/12/08 03:04:26;;;;;;;43.95;29.75;;;5.80;93.50;;;;;;2056294;28;20538;-67
2020/12/08 03:05:27;;;;;;;44.95;29.60;;;5.80;93.70;;;;;;2056051;28;20037;-67
2020/12/08 03:06:32;;;;;;;43.50;28.73;;;5.90;93.80;;;;;;2056514;28;20037;-67
2020/12/08 03:07:34;;;;;;;40.33;27.95;;;5.90;93.60;;;;;;2063760;28;20037;-67
2020/12/08 03:08:37;;;;;;;41.22;28.27;;;5.90;93.50;;;;;;2064024;28;20369;-67
2020/12/08 03:09:39;;;;;;;44.00;29.70;;;5.90;93.50;;;;;;2063921;28;20493;-67
2020/12/08 03:10:39;;;;;;;41.78;29.42;;;5.90;93.60;;;;;;2056342;28;20097;-66
2020/12/08 03:11:40;;;;;;;44.08;29.80;;;5.90;93.60;;;;;;2055658;28;20038;-67
2020/12/08 03:12:50;;;;;;;46.40;30.00;;;5.90;93.60;;;;;;2056223;28;20188;-67
2020/12/08 03:13:50;;;;;;;46.20;30.73;;;5.90;93.70;;;;;;2057553;28;20049;-66
2020/12/08 03:14:51;;;;;;;44.83;30.60;;;5.90;93.80;;;;;;2055757;28;20082;-67
2020/12/08 03:16:04;;;;;;;44.45;29.75;;;6.00;93.70;;;;;;2056983;28;20034;-67
2020/12/08 03:17:06;;;;;;;45.58;30.67;;;6.00;93.70;;;;;;2056106;28;20030;-67
2020/12/08 03:18:07;;;;;;;43.55;29.13;;;6.00;93.80;;;;;;2048005;28;20133;-67
2020/12/08 03:19:08;;;;;;;42.20;29.35;;;6.00;93.70;;;;;;2055678;28;20042;-66
2020/12/08 03:20:09;;;;;;;42.60;29.35;;;6.00;93.60;;;;;;2056274;28;20116;-67
2020/12/08 03:21:17;;;;;;;43.90;29.50;;;6.00;93.60;;;;;;2049123;28;20027;-66
2020/12/08 03:22:18;;;;;;;43.92;29.50;;;6.00;93.60;;;;;;2056264;28;20430;-67
2020/12/08 03:23:24;;;;;;;41.45;27.70;;;6.00;93.60;;;;;;2056184;28;20038;-67
2020/12/08 03:24:26;;;;;;;44.05;29.75;;;6.00;93.60;;;;;;2056310;28;20023;-66
2020/12/08 03:25:27;;;;;;;43.83;29.35;;;6.00;93.60;;;;;;2063626;28;20537;-66
2020/12/08 03:26:28;;;;;;;44.78;29.50;;;6.00;93.50;;;;;;2063903;28;20061;-65
2020/12/08 03:27:30;;;;;;;42.08;28.30;;;6.00;93.60;;;;;;2064179;28;20026;-66
2020/12/08 03:28:34;;;;;;;42.65;28.63;;;6.00;93.90;;;;;;2064128;28;20081;-65
2020/12/08 03:29:34;;;;;;;41.70;27.67;;;6.00;93.70;;;;;;2063755;28;20595;-66
2020/12/08 03:30:40;;;;;;;42.13;28.77;;;5.90;93.60;;;;;;2064142;28;20609;-67
2020/12/08 03:31:42;;;;;;;40.25;28.48;;;5.90;93.60;;;;;;2064002;28;20069;-67
2020/12/08 03:32:43;;;;;;;40.55;27.92;;;5.90;93.70;;;;;;2064064;28;20576;-68
2020/12/08 03:33:49;;;;;;;43.08;28.60;;;5.90;93.80;;;;;;2056026;28;20034;-65
2020/12/08 03:34:50;;;;;;;42.00;28.13;;;5.90;93.80;;;;;;2039931;29;20095;-65
2020/12/08 03:35:53;;;;;;;41.35;28.05;;;5.80;93.80;;;;;;2048215;28;20031;-66
2020/12/08 03:36:54;;;;;;;43.30;29.38;;;5.80;93.90;;;;;;2064081;28;20502;-66
2020/12/08 03:37:54;;;;;;;42.13;28.67;;;5.80;94.00;;;;;;2063986;28;20026;-66
2020/12/08 03:38:58;;;;;;;46.72;30.50;;;5.80;93.90;;;;;;2063833;28;20026;-65
2020/12/08 03:40:03;;;;;;;44.90;29.52;;;5.80;94.00;;;;;;2064055;28;20552;-66
2020/12/08 03:41:06;;;;;;;44.17;30.10;;;5.80;94.10;;;;;;2064010;28;20030;-66
2020/12/08 03:42:09;;;;;;;44.80;29.80;;;5.70;94.00;;;;;;2063957;28;20026;-66
2020/12/08 03:43:13;;;;;;;43.45;28.70;;;5.70;94.10;;;;;;2055586;28;20106;-66
2020/12/08 03:44:13;;;;;;;45.47;29.95;;;5.70;94.00;;;;;;2056085;28;20034;-66
2020/12/08 03:45:15;;;;;;;42.50;28.50;;;5.80;94.20;;;;;;2063368;28;20027;-66
2020/12/08 03:46:29;;;;;;;40.70;27.63;;;5.70;94.10;;;;;;2063923;28;20022;-66
2020/12/08 03:47:31;;;;;;;43.17;28.60;;;5.70;94.20;;;;;;2063875;28;20019;-66
2020/12/08 03:48:33;;;;;;;44.45;29.38;;;5.70;94.10;;;;;;2063956;28;20026;-66
2020/12/08 03:49:34;;;;;;;46.13;29.17;;;5.70;94.20;;;;;;2063705;28;20238;-66
2020/12/08 03:50:37;;;;;;;46.38;29.63;;;5.70;94.30;;;;;;2063985;28;20498;-66
2020/12/08 03:51:40;;;;;;;42.03;28.33;;;5.70;94.40;;;;;;2064034;28;20037;-66
2020/12/08 03:52:47;;;;;;;44.83;29.30;;;5.70;94.30;;;;;;2063935;28;20502;-66
2020/12/08 03:53:48;;;;;;;44.80;29.17;;;5.70;94.40;;;;;;2063502;28;20033;-68
2020/12/08 03:54:53;;;;;;;46.05;29.13;;;5.70;94.40;;;;;;2063391;28;20502;-66
2020/12/08 03:55:53;;;;;;;43.35;29.13;;;5.80;94.40;;;;;;2063965;28;20037;-66
2020/12/08 03:56:55;;;;;;;43.22;29.23;;;5.80;94.20;;;;;;2064017;28;20093;-66
2020/12/08 03:58:00;;;;;;;44.92;29.52;;;5.80;94.30;;;;;;2063863;28;20030;-66
2020/12/08 03:59:01;;;;;;;35.03;22.95;;;5.90;94.20;;;;;;2063622;28;20049;-66
2020/12/08 04:00:07;;;;;;;32.97;22.13;;;5.90;92.80;;;;;;2063955;28;20605;-66
2020/12/08 04:01:18;;;;;;;29.83;21.00;;;5.80;92.20;;;;;;2062744;28;20108;-66
2020/12/08 04:02:19;;;;;;;29.02;19.73;;;5.70;91.90;;;;;;2055993;28;20050;-66
2020/12/08 04:03:21;;;;;;;30.05;20.15;;;5.60;91.80;;;;;;2055597;28;20117;-66
2020/12/08 04:04:25;;;;;;;29.02;19.83;;;5.50;91.90;;;;;;2063671;28;20057;-66
2020/12/08 04:05:25;;;;;;;27.05;18.50;;;5.50;92.10;;;;;;2063647;28;20041;-66
2020/12/08 04:06:26;;;;;;;28.25;19.38;;;5.40;92.20;;;;;;2056008;28;20636;-66
2020/12/08 04:07:29;;;;;;;28.98;19.70;;;5.50;92.30;;;;;;2055803;28;20038;-66
2020/12/08 04:08:30;;;;;;;27.35;18.95;;;5.40;92.50;;;;;;2056078;28;20066;-66
2020/12/08 04:09:31;;;;;;;27.40;19.02;;;5.40;92.50;;;;;;2063891;28;20379;-66
2020/12/08 04:10:33;;;;;;;28.20;19.52;;;5.40;92.60;;;;;;2063957;28;20038;-65
2020/12/08 04:11:36;;;;;;;30.00;20.35;;;5.40;92.80;;;;;;2064296;28;20107;-66
2020/12/08 04:12:38;;;;;;;31.35;21.00;;;5.40;93.00;;;;;;2048016;28;20395;-66
2020/12/08 04:13:42;;;;;;;28.27;20.13;;;5.50;93.10;;;;;;2040876;28;20032;-66
2020/12/08 04:14:44;;;;;;;28.23;19.63;;;5.50;93.20;;;;;;2055698;28;20023;-66
2020/12/08 04:15:46;;;;;;;27.67;19.50;;;5.50;93.10;;;;;;2063452;28;20022;-66
2020/12/08 04:16:47;;;;;;;27.95;18.77;;;5.60;93.20;;;;;;2055969;28;20495;-65
2020/12/08 04:17:50;;;;;;;31.77;22.13;;;5.60;93.20;;;;;;2055830;28;20035;-66
2020/12/08 04:18:51;;;;;;;30.88;21.92;;;5.70;93.30;;;;;;2047851;29;20117;-66
2020/12/08 04:19:52;;;;;;;31.77;22.52;;;5.80;93.30;;;;;;2047723;28;20559;-66
2020/12/08 04:20:54;;;;;;;32.38;22.60;;;5.90;93.40;;;;;;2047811;28;20023;-66
2020/12/08 04:22:02;;;;;;;29.23;21.25;;;5.90;93.50;;;;;;2055898;28;20033;-66
2020/12/08 04:23:18;;;;;;;33.80;21.98;;;6.00;93.30;;;;;;2055728;28;20026;-66
2020/12/08 04:24:19;;;;;;;31.98;22.33;;;6.10;93.20;;;;;;2040268;29;20031;-66
2020/12/08 04:25:23;;;;;;;32.97;23.25;;;6.20;93.10;;;;;;2048650;28;20055;-65
2020/12/08 04:26:24;;;;;;;33.53;23.27;;;6.20;93.10;;;;;;2063952;28;20027;-65
2020/12/08 04:27:25;;;;;;;36.05;25.15;;;6.30;93.00;;;;;;2064030;28;20058;-65
2020/12/08 04:28:33;;;;;;;37.03;25.33;;;6.30;93.00;;;;;;2063921;28;20081;-66
2020/12/08 04:29:33;;;;;;;40.83;25.98;;;6.40;92.80;;;;;;2063755;28;20023;-65
2020/12/08 04:30:37;;;;;;;36.08;25.40;;;6.40;92.70;;;;;;2063798;28;20522;-66
2020/12/08 04:31:39;;;;;;;35.78;25.13;;;6.50;92.60;;;;;;2063478;28;20026;-65
2020/12/08 04:32:40;;;;;;;35.03;24.33;;;6.50;92.50;;;;;;2055705;28;20110;-65
2020/12/08 04:33:41;;;;;;;35.88;24.90;;;6.50;92.30;;;;;;2055781;28;20026;-65
2020/12/08 04:34:42;;;;;;;36.05;24.63;;;6.60;92.20;;;;;;2056306;28;20023;-65
2020/12/08 04:35:43;;;;;;;38.00;25.92;;;6.60;92.10;;;;;;2055621;28;20484;-66
2020/12/08 04:36:44;;;;;;;38.35;25.40;;;6.70;92.10;;;;;;2055932;28;20019;-66
2020/12/08 04:37:44;;;;;;;35.10;24.15;;;6.70;92.00;;;;;;2063898;28;20418;-66
2020/12/08 04:38:46;;;;;;;32.38;23.48;;;6.70;91.80;;;;;;2056447;28;20074;-66
2020/12/08 04:39:47;;;;;;;35.17;24.33;;;6.70;91.80;;;;;;2056487;28;20026;-66
2020/12/08 04:40:48;;;;;;;33.97;23.55;;;6.70;91.70;;;;;;2056474;28;20509;-66
2020/12/08 04:41:56;;;;;;;34.88;23.90;;;6.70;91.60;;;;;;2056208;28;20486;-66
2020/12/08 04:42:57;;;;;;;37.40;25.13;;;6.80;91.60;;;;;;2056454;28;20110;-66
2020/12/08 04:43:59;;;;;;;36.50;24.90;;;6.80;91.40;;;;;;2063661;28;20042;-66
2020/12/08 04:45:01;;;;;;;34.90;24.70;;;6.80;91.30;;;;;;2063193;28;20027;-66
2020/12/08 04:46:01;;;;;;;35.75;25.35;;;6.80;91.30;;;;;;2056243;28;20030;-66
2020/12/08 04:47:10;;;;;;;33.80;24.23;;;6.80;91.20;;;;;;2056297;28;20026;-66
2020/12/08 04:48:11;;;;;;;35.80;25.02;;;6.80;91.10;;;;;;2056331;28;20039;-66
2020/12/08 04:49:13;;;;;;;35.58;25.02;;;6.80;91.40;;;;;;2056189;28;20097;-66
2020/12/08 04:50:15;;;;;;;33.80;24.58;;;6.80;91.00;;;;;;2063538;28;20037;-66
2020/12/08 04:51:18;;;;;;;34.20;24.92;;;6.80;91.00;;;;;;2063209;28;20026;-66
2020/12/08 04:52:18;;;;;;;34.13;24.48;;;6.80;90.90;;;;;;2056043;28;20653;-66
2020/12/08 04:53:21;;;;;;;32.65;24.08;;;6.80;90.80;;;;;;2056083;28;20054;-66
2020/12/08 04:54:22;;;;;;;35.50;24.70;;;6.90;90.80;;;;;;2056153;28;20035;-66
2020/12/08 04:55:23;;;;;;;34.05;24.40;;;6.80;90.80;;;;;;2055872;28;20022;-66
2020/12/08 04:56:24;;;;;;;35.72;25.05;;;6.80;90.80;;;;;;2056120;28;20038;-66
2020/12/08 04:57:26;;;;;;;33.45;24.60;;;6.90;90.80;;;;;;2055716;28;20108;-66
2020/12/08 04:58:28;;;;;;;35.53;24.05;;;6.80;90.70;;;;;;2055548;28;20031;-66
2020/12/08 04:59:28;;;;;;;33.85;24.17;;;6.80;90.60;;;;;;2055567;28;20038;-66
2020/12/08 05:00:29;;;;;;;34.20;24.00;;;6.80;90.60;;;;;;2055567;28;20027;-66
2020/12/08 05:01:30;;;;;;;34.22;24.25;;;6.90;90.60;;;;;;2056221;28;20031;-66
2020/12/08 05:02:31;;;;;;;33.08;24.05;;;6.90;90.60;;;;;;2056137;28;20101;-66
2020/12/08 05:03:33;;;;;;;33.80;23.70;;;6.80;90.50;;;;;;2056080;28;20081;-66
2020/12/08 05:04:34;;;;;;;33.85;23.92;;;6.80;90.50;;;;;;2056390;28;20182;-66
2020/12/08 05:05:42;;;;;;;35.83;24.10;;;6.80;90.50;;;;;;2055940;28;20134;-66
2020/12/08 05:06:43;;;;;;;35.08;24.85;;;6.80;90.60;;;;;;2056265;28;20118;-66
2020/12/08 05:07:45;;;;;;;35.53;24.75;;;6.80;90.70;;;;;;2063426;28;20177;-66
2020/12/08 05:08:46;;;;;;;37.65;25.05;;;6.70;90.70;;;;;;2055441;28;20177;-66
2020/12/08 05:09:47;;;;;;;35.05;24.75;;;6.70;90.70;;;;;;2055310;28;20038;-66
2020/12/08 05:10:48;;;;;;;33.85;24.00;;;6.70;90.80;;;;;;2056131;28;20050;-66
2020/12/08 05:11:55;;;;;;;31.67;23.17;;;6.70;90.80;;;;;;2055965;28;20474;-66
2020/12/08 05:12:56;;;;;;;31.30;22.80;;;6.70;90.80;;;;;;2056086;28;20030;-66
2020/12/08 05:14:04;;;;;;;30.85;22.15;;;6.60;90.80;;;;;;2056211;28;20554;-66
2020/12/08 05:15:16;;;;;;;32.53;23.23;;;6.60;90.80;;;;;;2055334;28;20115;-66
2020/12/08 05:16:19;;;;;;;36.72;25.77;;;6.50;90.90;;;;;;2055738;28;20058;-65
2020/12/08 05:17:22;;;;;;;35.92;25.25;;;6.50;91.00;;;;;;2056071;28;20034;-66
2020/12/08 05:18:22;;;;;;;33.70;23.92;;;6.60;91.10;;;;;;2056084;28;20034;-66
2020/12/08 05:19:23;;;;;;;36.85;24.50;;;6.50;91.10;;;;;;2055819;28;20057;-66